Time;durP1;ratioP1;P1;durP2;ratioP2;P2;SDS_P1;SDS_P2;PMS_P1;PMS_P2;Temp;Humidity;BMP_temperature;BMP_pressure;BME280_temperature;BME280_humidity;BME280_pressure;Samples;Min_cycle;Max_cycle;Signal;HPM_P1;HPM_P2
2022/04/03 00:00:25;;;;;;;0.70;0.70;;;;;;;-0.91;93.09;96899.41;29375;216;63009;-65
2022/04/03 00:01:00;;;;;;;0.80;0.80;;;;;;;-0.88;92.97;96906.97;29373;280;64009;-56
2022/04/03 00:01:32;;;;;;;0.70;0.70;;;;;;;-0.87;92.70;96900.63;29375;268;63015;-57
2022/04/03 00:02:04;;;;;;;0.60;0.60;;;;;;;-0.89;92.29;96902.69;29375;229;63005;-56
2022/04/03 00:02:37;;;;;;;0.60;0.60;;;;;;;-0.91;92.29;96907.41;29373;214;64013;-57
2022/04/03 00:03:09;;;;;;;0.70;0.70;;;;;;;-0.94;92.28;96907.84;29375;202;63004;-56
2022/04/03 00:03:41;;;;;;;0.70;0.70;;;;;;;-0.99;92.54;96899.69;29375;202;63009;-57
2022/04/03 00:04:14;;;;;;;0.70;0.70;;;;;;;-0.99;92.80;96905.03;29375;206;63004;-66
2022/04/03 00:04:46;;;;;;;0.70;0.70;;;;;;;-0.96;92.69;96904.59;29375;221;63009;-63
2022/04/03 00:05:21;;;;;;;0.60;0.60;;;;;;;-0.96;93.07;96904.59;29375;203;63004;-56
2022/04/03 00:05:54;;;;;;;0.70;0.70;;;;;;;-0.96;93.02;96904.59;29375;238;63008;-65
2022/04/03 00:06:27;;;;;;;0.70;0.70;;;;;;;-0.94;92.98;96902.53;29375;222;63005;-57
2022/04/03 00:07:02;;;;;;;0.60;0.60;;;;;;;-0.95;92.99;96905.41;29375;197;63009;-66
2022/04/03 00:07:35;;;;;;;0.60;0.60;;;;;;;-0.99;92.86;96904.22;29375;295;63005;-58
2022/04/03 00:08:08;;;;;;;0.70;0.70;;;;;;;-0.99;92.83;96910.34;29373;202;64013;-63
2022/04/03 00:08:41;;;;;;;0.60;0.60;;;;;;;-0.99;92.89;96907.69;29375;338;63005;-56
2022/04/03 00:09:20;;;;;;;0.70;0.70;;;;;;;-1.02;93.12;96910.78;29375;266;63017;-57
2022/04/03 00:09:58;;;;;;;0.60;0.60;;;;;;;-1.04;93.05;96908.34;29375;213;63005;-65
2022/04/03 00:10:30;;;;;;;0.60;0.60;;;;;;;-0.97;93.21;96902.97;29375;215;63009;-56
2022/04/03 00:11:03;;;;;;;0.70;0.70;;;;;;;-0.92;93.31;96913.78;29375;228;63004;-56
2022/04/03 00:11:35;;;;;;;0.70;0.70;;;;;;;-0.93;92.96;96906.81;29375;214;63016;-57
2022/04/03 00:12:14;;;;;;;0.70;0.70;;;;;;;-0.98;92.91;96901.31;29375;196;63004;-67
2022/04/03 00:12:50;;;;;;;0.60;0.60;;;;;;;-0.96;92.54;96904.59;29375;238;63009;-64
2022/04/03 00:13:26;;;;;;;0.70;0.70;;;;;;;-0.99;92.68;96915.69;29373;215;64008;-57
2022/04/03 00:14:00;;;;;;;0.70;0.70;;;;;;;-0.97;92.68;96907.47;29375;264;63009;-56
2022/04/03 00:14:35;;;;;;;0.70;0.70;;;;;;;-0.86;92.71;96914.75;29375;211;63005;-57
2022/04/03 00:15:08;;;;;;;0.70;0.70;;;;;;;-0.83;92.71;96903.66;29375;220;63009;-58
2022/04/03 00:15:42;;;;;;;0.70;0.70;;;;;;;-0.78;92.28;96901.97;29375;210;63005;-57
2022/04/03 00:16:16;;;;;;;0.60;0.60;;;;;;;-0.80;91.87;96904.03;29375;210;63009;-64
2022/04/03 00:16:51;;;;;;;1.30;1.30;;;;;;;-0.81;91.73;96914.91;29375;240;63005;-65
2022/04/03 00:17:24;;;;;;;0.70;0.70;;;;;;;-0.86;91.86;96907.56;29375;241;63009;-66
2022/04/03 00:17:55;;;;;;;0.60;0.60;;;;;;;-0.90;91.88;96903.72;29375;218;63005;-56
2022/04/03 00:18:27;;;;;;;0.60;0.60;;;;;;;-0.96;91.70;96899.25;29372;290;64013;-56
2022/04/03 00:18:58;;;;;;;0.90;0.90;;;;;;;-1.01;92.18;96907.91;29372;257;64009;-67
2022/04/03 00:19:31;;;;;;;0.70;0.70;;;;;;;-1.04;92.11;96905.69;29373;231;63009;-57
2022/04/03 00:20:03;;;;;;;0.70;0.70;;;;;;;-1.06;92.35;96905.13;29373;222;63004;-66
2022/04/03 00:20:40;;;;;;;0.70;0.70;;;;;;;-1.08;92.64;96909.03;29373;376;63008;-66
2022/04/03 00:21:16;;;;;;;0.60;0.60;;;;;;;-1.11;92.46;96912.13;29373;315;63004;-67
2022/04/03 00:21:47;;;;;;;0.60;0.60;;;;;;;-1.12;92.87;96907.81;29371;289;64014;-57
2022/04/03 00:22:19;;;;;;;0.60;0.60;;;;;;;-1.17;92.72;96905.00;29373;222;63005;-56
2022/04/03 00:22:52;;;;;;;0.60;0.60;;;;;;;-1.17;93.04;96907.66;29373;266;63009;-56
2022/04/03 00:23:24;;;;;;;0.70;0.70;;;;;;;-1.18;93.30;96904.19;29373;198;63005;-57
2022/04/03 00:23:55;;;;;;;1.00;0.95;;;;;;;-1.17;93.41;96908.47;29373;221;63009;-56
2022/04/03 00:24:26;;;;;;;0.70;0.70;;;;;;;-1.16;93.38;96909.28;29373;214;63005;-57
2022/04/03 00:25:03;;;;;;;0.60;0.60;;;;;;;-1.11;93.69;96901.47;29373;269;63009;-64
2022/04/03 00:25:35;;;;;;;0.60;0.60;;;;;;;-1.02;93.43;96905.47;29373;318;63017;-58
2022/04/03 00:26:07;;;;;;;0.70;0.70;;;;;;;-0.99;93.38;96907.69;29373;245;63009;-56
2022/04/03 00:26:42;;;;;;;0.70;0.70;;;;;;;-0.99;93.07;96910.34;29371;232;64009;-66
2022/04/03 00:27:14;;;;;;;0.60;0.60;;;;;;;-1.02;93.15;96905.47;29373;197;63009;-66
2022/04/03 00:27:46;;;;;;;0.60;0.60;;;;;;;-1.07;92.98;96902.66;29373;205;63004;-57
2022/04/03 00:28:18;;;;;;;0.70;0.70;;;;;;;-1.09;92.95;96904.72;29371;196;64013;-56
2022/04/03 00:28:49;;;;;;;0.68;0.68;;;;;;;-1.13;93.00;96904.34;29371;252;64009;-57
2022/04/03 00:29:20;;;;;;;0.60;0.60;;;;;;;-1.18;93.13;96901.53;29373;217;63009;-66
2022/04/03 00:29:52;;;;;;;0.60;0.60;;;;;;;-1.19;93.26;96904.41;29373;215;63005;-57
2022/04/03 00:30:23;;;;;;;0.90;0.90;;;;;;;-1.19;93.34;96904.41;29373;236;63009;-57
2022/04/03 00:30:55;;;;;;;0.70;0.70;;;;;;;-1.17;93.58;96902.34;29373;228;63005;-57
2022/04/03 00:31:31;;;;;;;0.60;0.60;;;;;;;-1.16;93.62;96909.28;29373;230;63009;-65
2022/04/03 00:32:04;;;;;;;0.68;0.68;;;;;;;-1.15;93.68;96903.75;29371;205;64009;-67
2022/04/03 00:32:35;;;;;;;0.60;0.60;;;;;;;-1.13;93.77;96909.69;29373;278;63009;-56
2022/04/03 00:33:08;;;;;;;0.60;0.60;;;;;;;-1.13;93.94;96908.88;29373;232;63004;-67
2022/04/03 00:33:40;;;;;;;0.70;0.70;;;;;;;-1.13;93.90;96908.88;29373;206;63009;-56
2022/04/03 00:34:18;;;;;;;0.70;0.70;;;;;;;-1.13;93.82;96904.34;29371;223;64009;-64
2022/04/03 00:34:50;;;;;;;0.60;0.60;;;;;;;-1.13;93.79;96909.69;29373;346;63009;-56
2022/04/03 00:35:21;;;;;;;0.70;0.70;;;;;;;-1.12;94.02;96910.50;29373;246;63004;-56
2022/04/03 00:35:56;;;;;;;0.70;0.70;;;;;;;-1.09;94.18;96912.72;29394;197;64008;-58
2022/04/03 00:36:27;;;;;;;0.70;0.70;;;;;;;-1.09;93.87;96913.53;29373;218;63011;-65
2022/04/03 00:36:58;;;;;;;0.60;0.60;;;;;;;-1.10;93.95;96908.44;29371;206;64014;-56
2022/04/03 00:37:31;;;;;;;0.70;0.70;;;;;;;-1.11;93.78;96909.47;29373;209;63005;-57
2022/04/03 00:38:02;;;;;;;0.68;0.68;;;;;;;-1.12;93.83;96913.16;29373;210;63009;-56
2022/04/03 00:38:33;;;;;;;0.60;0.60;;;;;;;-1.12;93.66;96910.50;29373;237;63005;-56
2022/04/03 00:39:08;;;;;;;0.60;0.60;;;;;;;-1.12;93.99;96910.50;29371;197;64013;-64
2022/04/03 00:39:40;;;;;;;0.60;0.60;;;;;;;-1.11;93.88;96912.13;29373;207;63005;-68
2022/04/03 00:40:16;;;;;;;0.60;0.60;;;;;;;-1.06;93.98;96909.62;29373;208;63009;-56
2022/04/03 00:41:02;;;;;;;0.60;0.60;;;;;;;-1.09;93.66;96910.88;29373;218;63004;-56
2022/04/03 00:41:33;;;;;;;0.60;0.60;;;;;;;-1.11;94.01;96914.78;29373;257;63009;-58
2022/04/03 00:42:08;;;;;;;0.60;0.60;;;;;;;-1.14;93.60;96901.91;29371;262;64009;-56
2022/04/03 00:42:41;;;;;;;0.60;0.60;;;;;;;-1.13;93.87;96911.53;29372;204;63008;-57
2022/04/03 00:43:13;;;;;;;0.60;0.60;;;;;;;-1.16;93.88;96909.28;29373;198;63004;-57
2022/04/03 00:43:48;;;;;;;0.70;0.70;;;;;;;-1.17;93.93;96911.16;29373;203;63008;-65
2022/04/03 00:44:25;;;;;;;0.60;0.60;;;;;;;-1.20;93.50;96913.44;29373;235;63005;-65
2022/04/03 00:44:56;;;;;;;0.60;0.60;;;;;;;-1.21;93.71;96911.78;29373;199;63009;-57
2022/04/03 00:45:30;;;;;;;0.60;0.60;;;;;;;-1.23;93.89;96908.53;29371;205;64009;-66
2022/04/03 00:46:04;;;;;;;0.60;0.60;;;;;;;-1.24;93.90;96906.91;29373;197;63009;-57
2022/04/03 00:46:38;;;;;;;0.60;0.60;;;;;;;-1.24;94.13;96912.22;29373;222;63005;-57
2022/04/03 00:47:14;;;;;;;0.65;0.65;;;;;;;-1.26;94.09;96908.97;29373;218;63005;-65
2022/04/03 00:47:58;;;;;;;0.60;0.60;;;;;;;-1.28;94.10;96911.84;29373;339;63004;-56
2022/04/03 00:48:30;;;;;;;0.70;0.70;;;;;;;-1.28;94.29;96911.03;29373;330;63009;-56
2022/04/03 00:49:04;;;;;;;0.70;0.70;;;;;;;-1.29;94.46;96917.38;29373;315;63004;-65
2022/04/03 00:49:35;;;;;;;0.70;0.70;;;;;;;-1.27;94.33;96912.66;29371;198;64013;-57
2022/04/03 00:50:11;;;;;;;0.60;0.60;;;;;;;-1.24;94.54;96912.22;29373;226;63004;-57
2022/04/03 00:50:44;;;;;;;0.60;0.60;;;;;;;-1.22;94.62;96912.81;29371;220;64032;-66
2022/04/03 00:51:18;;;;;;;0.70;0.70;;;;;;;-1.21;94.57;96911.78;29373;219;63005;-55
2022/04/03 00:51:50;;;;;;;0.70;0.70;;;;;;;-1.20;94.66;96919.56;29373;384;63009;-56
2022/04/03 00:52:21;;;;;;;0.70;0.70;;;;;;;-1.17;94.50;96913.81;29371;235;64009;-57
2022/04/03 00:52:52;;;;;;;0.60;0.60;;;;;;;-1.13;94.61;96919.50;29371;233;64013;-57
2022/04/03 00:53:25;;;;;;;0.70;0.70;;;;;;;-1.11;94.31;96912.13;29373;230;63005;-62
2022/04/03 00:53:56;;;;;;;0.70;0.70;;;;;;;-1.11;94.10;96917.44;29371;216;64013;-57
2022/04/03 00:54:28;;;;;;;0.70;0.70;;;;;;;-1.13;93.67;96914.19;29373;268;63005;-68
2022/04/03 00:55:01;;;;;;;0.70;0.70;;;;;;;-1.16;93.94;96911.97;29373;225;63009;-56
2022/04/03 00:55:32;;;;;;;0.60;0.60;;;;;;;-1.19;93.81;96909.72;29373;210;63004;-57
2022/04/03 00:56:05;;;;;;;0.70;0.70;;;;;;;-1.19;93.68;96915.06;29373;291;63009;-56
2022/04/03 00:56:37;;;;;;;0.70;0.70;;;;;;;-1.19;93.82;96915.06;29373;218;63004;-66
2022/04/03 00:57:09;;;;;;;0.60;0.60;;;;;;;-1.20;93.81;96913.44;29373;222;63009;-56
2022/04/03 00:57:43;;;;;;;0.60;0.60;;;;;;;-1.21;93.84;96912.59;29372;196;63004;-57
2022/04/03 00:58:15;;;;;;;0.68;0.68;;;;;;;-1.14;94.04;96909.91;29373;222;63009;-58
2022/04/03 00:58:48;;;;;;;0.70;0.70;;;;;;;-0.99;93.47;96917.53;29373;272;63005;-57
2022/04/03 00:59:19;;;;;;;0.70;0.70;;;;;;;-0.92;92.94;96911.09;29371;205;64014;-57
2022/04/03 00:59:52;;;;;;;0.90;0.90;;;;;;;-0.85;92.38;96917.19;29373;205;63005;-62
2022/04/03 01:00:24;;;;;;;0.70;0.70;;;;;;;-0.81;91.80;96913.06;29373;221;63009;-56
2022/04/03 01:00:55;;;;;;;0.60;0.60;;;;;;;-0.76;91.21;96915.88;29373;202;63005;-56
2022/04/03 01:01:26;;;;;;;6.43;2.70;;;;;;;-0.83;90.95;96911.66;29373;263;63009;-56
2022/04/03 01:02:02;;;;;;;0.60;0.60;;;;;;;-0.89;90.58;96916.00;29373;207;63005;-63
2022/04/03 01:02:33;;;;;;;0.70;0.70;;;;;;;-0.93;91.00;96914.81;29373;237;63014;-65
2022/04/03 01:03:04;;;;;;;0.60;0.60;;;;;;;-0.95;91.08;96916.06;29373;274;63004;-57
2022/04/03 01:03:40;;;;;;;0.70;0.70;;;;;;;-1.00;91.36;96916.72;29373;358;63009;-57
2022/04/03 01:04:14;;;;;;;0.70;0.70;;;;;;;-1.04;91.39;96915.56;29371;236;64009;-66
2022/04/03 01:04:46;;;;;;;0.70;0.70;;;;;;;-1.08;91.67;96917.00;29373;196;63009;-63
2022/04/03 01:05:25;;;;;;;0.70;0.70;;;;;;;-1.10;91.67;96919.09;29373;233;63004;-62
2022/04/03 01:05:58;;;;;;;0.60;0.60;;;;;;;-1.04;92.24;96918.22;29373;197;63009;-63
2022/04/03 01:06:40;;;;;;;0.70;0.70;;;;;;;-0.98;91.75;96917.31;29373;202;63005;-57
2022/04/03 01:07:13;;;;;;;0.60;0.60;;;;;;;-0.98;91.88;96917.31;29373;321;63009;-57
2022/04/03 01:07:45;;;;;;;0.70;0.70;;;;;;;-1.03;91.56;96925.12;29373;226;63005;-58
2022/04/03 01:08:25;;;;;;;0.70;0.70;;;;;;;-1.08;91.62;96911.69;29373;226;63009;-65
2022/04/03 01:08:59;;;;;;;0.62;0.62;;;;;;;-1.16;91.71;96914.63;29393;329;64009;-56
2022/04/03 01:09:36;;;;;;;0.68;0.68;;;;;;;-1.24;91.94;96912.22;29394;309;64013;-58
2022/04/03 01:10:08;;;;;;;0.80;0.80;;;;;;;-1.22;92.17;96923.47;29373;216;63010;-57
2022/04/03 01:10:40;;;;;;;0.60;0.60;;;;;;;-1.24;92.18;96920.22;29373;233;63009;-63
2022/04/03 01:11:13;;;;;;;0.75;0.75;;;;;;;-1.21;92.39;96917.13;29373;207;63004;-57
2022/04/03 01:11:45;;;;;;;0.60;0.60;;;;;;;-1.20;92.69;96919.56;29373;230;63013;-57
2022/04/03 01:12:16;;;;;;;0.70;0.70;;;;;;;-1.12;92.65;96921.97;29371;202;64009;-56
2022/04/03 01:12:47;;;;;;;0.60;0.60;;;;;;;-1.07;92.20;96923.97;29371;217;64013;-57
2022/04/03 01:13:19;;;;;;;0.70;0.70;;;;;;;-1.05;92.04;96921.91;29373;222;63010;-56
2022/04/03 01:13:52;;;;;;;0.60;0.60;;;;;;;-1.06;92.23;96920.28;29373;253;63009;-56
2022/04/03 01:14:33;;;;;;;0.70;0.70;;;;;;;-1.11;92.00;96922.78;29373;230;63005;-57
2022/04/03 01:15:06;;;;;;;0.70;0.70;;;;;;;-1.12;92.17;96923.81;29373;202;63009;-57
2022/04/03 01:15:37;;;;;;;0.60;0.60;;;;;;;-1.15;92.27;96925.06;29371;220;64009;-57
2022/04/03 01:16:08;;;;;;;0.70;0.70;;;;;;;-1.17;92.05;96918.31;29373;252;63009;-57
2022/04/03 01:16:39;;;;;;;0.85;0.85;;;;;;;-1.21;91.92;96925.91;29371;217;64009;-57
2022/04/03 01:17:14;;;;;;;0.70;0.70;;;;;;;-1.21;92.29;96922.44;29373;244;63009;-66
2022/04/03 01:17:46;;;;;;;0.70;0.70;;;;;;;-1.22;92.39;96918.16;29373;202;63004;-57
2022/04/03 01:18:17;;;;;;;0.70;0.70;;;;;;;-1.17;92.62;96915.66;29373;224;63009;-66
2022/04/03 01:18:49;;;;;;;0.60;0.60;;;;;;;-1.16;92.58;96919.94;29373;236;63004;-58
2022/04/03 01:19:20;;;;;;;0.60;0.60;;;;;;;-1.17;92.48;96913.00;29373;227;63009;-57
2022/04/03 01:19:53;;;;;;;0.70;0.70;;;;;;;-1.20;92.58;96918.75;29373;246;63004;-57
2022/04/03 01:20:25;;;;;;;0.70;0.70;;;;;;;-1.21;92.87;96919.78;29373;244;63008;-56
2022/04/03 01:20:56;;;;;;;0.70;0.70;;;;;;;-1.21;92.71;96914.47;29371;202;64009;-57
2022/04/03 01:21:27;;;;;;;0.70;0.70;;;;;;;-1.25;92.83;96915.91;29373;220;63009;-56
2022/04/03 01:21:59;;;;;;;0.70;0.70;;;;;;;-1.26;92.69;96925.75;29373;202;63005;-56
2022/04/03 01:22:31;;;;;;;0.68;0.68;;;;;;;-1.21;93.17;96923.25;29373;205;63009;-56
2022/04/03 01:23:02;;;;;;;0.70;0.70;;;;;;;-1.19;93.06;96917.72;29373;287;63005;-64
2022/04/03 01:23:33;;;;;;;0.60;0.60;;;;;;;-1.18;92.95;96916.69;29371;210;64013;-57
2022/04/03 01:24:17;;;;;;;0.70;0.70;;;;;;;-1.11;93.24;96917.44;29373;206;63005;-58
2022/04/03 01:24:55;;;;;;;0.68;0.68;;;;;;;-1.11;93.10;96917.44;29373;222;63009;-56
2022/04/03 01:25:30;;;;;;;0.60;0.60;;;;;;;-1.10;92.78;96921.75;29373;218;63004;-56
2022/04/03 01:26:01;;;;;;;0.60;0.60;;;;;;;-1.14;92.74;96923.22;29373;199;63009;-56
2022/04/03 01:26:32;;;;;;;0.70;0.70;;;;;;;-1.13;92.70;96930.16;29373;249;63017;-56
2022/04/03 01:27:04;;;;;;;0.70;0.70;;;;;;;-1.15;92.85;96927.72;29373;274;63009;-57
2022/04/03 01:27:35;;;;;;;0.70;0.70;;;;;;;-1.16;92.70;96919.94;29373;196;63004;-56
2022/04/03 01:28:08;;;;;;;0.70;0.70;;;;;;;-1.14;92.91;96923.22;29373;250;63008;-60
2022/04/03 01:28:40;;;;;;;0.70;0.70;;;;;;;-1.08;92.86;96922.34;29371;239;64009;-57
2022/04/03 01:29:12;;;;;;;0.70;0.70;;;;;;;-1.06;92.84;96926.41;29373;223;63009;-57
2022/04/03 01:29:43;;;;;;;0.60;0.60;;;;;;;-1.04;92.67;96926.19;29373;244;63005;-57
2022/04/03 01:30:14;;;;;;;0.90;0.90;;;;;;;-0.93;92.19;96924.66;29373;247;63009;-57
2022/04/03 01:30:45;;;;;;;0.60;0.60;;;;;;;-0.89;91.15;96921.31;29373;218;63005;-56
2022/04/03 01:31:16;;;;;;;0.70;0.70;;;;;;;-0.90;90.79;96924.22;29373;226;63009;-57
2022/04/03 01:31:50;;;;;;;0.70;0.70;;;;;;;-0.93;91.00;96925.47;29373;236;63005;-61
2022/04/03 01:32:22;;;;;;;0.70;0.70;;;;;;;-0.94;90.91;96928.34;29373;244;63009;-64
2022/04/03 01:32:53;;;;;;;0.70;0.70;;;;;;;-0.94;90.97;96928.34;29373;206;63004;-57
2022/04/03 01:33:25;;;;;;;0.70;0.70;;;;;;;-0.93;90.96;96930.78;29371;228;64013;-56
2022/04/03 01:33:56;;;;;;;0.70;0.70;;;;;;;-0.96;91.18;96925.09;29373;237;63000;-56
2022/04/03 01:34:27;;;;;;;1.12;1.12;;;;;;;-0.93;91.08;96925.47;29373;202;63009;-59
2022/04/03 01:34:59;;;;;;;0.70;0.70;;;;;;;-0.92;90.69;96927.09;29373;197;63004;-58
2022/04/03 01:35:30;;;;;;;1.65;1.62;;;;;;;-0.90;90.60;96929.53;29371;275;64013;-57
2022/04/03 01:36:01;;;;;;;0.60;0.60;;;;;;;-0.87;90.59;96924.59;29373;196;63016;-57
2022/04/03 01:36:33;;;;;;;0.70;0.70;;;;;;;-0.86;90.55;96926.22;29371;231;64014;-57
2022/04/03 01:37:04;;;;;;;0.70;0.70;;;;;;;-0.80;90.22;96927.19;29373;238;63005;-57
2022/04/03 01:37:36;;;;;;;0.65;0.65;;;;;;;-0.85;89.89;96922.53;29373;210;63009;-57
2022/04/03 01:38:08;;;;;;;0.65;0.65;;;;;;;-0.90;89.96;96930.34;29373;216;63005;-56
2022/04/03 01:38:39;;;;;;;0.60;0.60;;;;;;;-0.94;90.18;96928.34;29373;196;63009;-57
2022/04/03 01:39:11;;;;;;;0.70;0.70;;;;;;;-0.93;90.19;96927.31;29371;203;64009;-57
2022/04/03 01:39:42;;;;;;;0.70;0.70;;;;;;;-0.91;90.47;96931.38;29373;279;63009;-58
2022/04/03 01:40:14;;;;;;;0.70;0.70;;;;;;;-0.94;90.22;96928.34;29371;227;64009;-57
2022/04/03 01:40:46;;;;;;;2.95;2.75;;;;;;;-0.95;90.34;96935.53;29373;241;63009;-57
2022/04/03 01:41:17;;;;;;;2.87;2.72;;;;;;;-0.91;90.15;96931.38;29373;238;63004;-57
2022/04/03 01:41:48;;;;;;;0.70;0.70;;;;;;;-0.89;90.21;96929.31;29373;239;63009;-56
2022/04/03 01:42:19;;;;;;;0.70;0.70;;;;;;;-0.87;90.20;96934.44;29373;247;63004;-57
2022/04/03 01:42:50;;;;;;;0.68;0.68;;;;;;;-0.91;89.88;96934.06;29372;224;63008;-57
2022/04/03 01:43:22;;;;;;;0.70;0.70;;;;;;;-0.90;90.19;96933.03;29373;218;63004;-57
2022/04/03 01:43:53;;;;;;;0.90;0.90;;;;;;;-0.86;89.97;96930.72;29373;221;63009;-56
2022/04/03 01:44:24;;;;;;;0.70;0.70;;;;;;;-0.82;89.91;96938.06;29373;226;63005;-57
2022/04/03 01:44:55;;;;;;;0.90;0.90;;;;;;;-0.81;89.46;96925.56;29373;197;63009;-57
2022/04/03 01:45:26;;;;;;;0.70;0.70;;;;;;;-0.88;89.27;96936.28;29371;198;64009;-57
2022/04/03 01:45:57;;;;;;;0.70;0.70;;;;;;;-0.94;89.47;96925.69;29373;280;63009;-57
2022/04/03 01:46:28;;;;;;;1.15;1.15;;;;;;;-0.96;89.90;96925.91;29373;214;63005;-56
2022/04/03 01:46:59;;;;;;;0.70;0.70;;;;;;;-0.98;90.18;96929.81;29371;248;64013;-56
2022/04/03 01:47:30;;;;;;;0.70;0.70;;;;;;;-1.01;90.13;96928.41;29373;210;63004;-57
2022/04/03 01:48:02;;;;;;;0.70;0.70;;;;;;;-0.98;90.54;96927.97;29373;215;63009;-57
2022/04/03 01:48:34;;;;;;;0.70;0.70;;;;;;;-0.97;90.50;96934.91;29373;258;63004;-57
2022/04/03 01:49:06;;;;;;;1.35;1.30;;;;;;;-0.87;90.21;96929.91;29373;197;63009;-57
2022/04/03 01:49:37;;;;;;;0.70;0.70;;;;;;;-0.86;89.49;96928.87;29373;207;63004;-57
2022/04/03 01:50:09;;;;;;;0.60;0.60;;;;;;;-0.86;89.75;96931.53;29373;245;63008;-57
2022/04/03 01:50:40;;;;;;;1.15;1.15;;;;;;;-0.88;89.32;96933.62;29373;206;63004;-57
2022/04/03 01:51:11;;;;;;;0.60;0.60;;;;;;;-0.91;89.68;96927.91;29372;340;64014;-57
2022/04/03 01:51:43;;;;;;;0.70;0.70;;;;;;;-0.95;89.91;96927.53;29373;224;63005;-56
2022/04/03 01:52:14;;;;;;;1.77;1.67;;;;;;;-0.99;90.16;96929.00;29373;304;63009;-57
2022/04/03 01:52:45;;;;;;;0.70;0.70;;;;;;;-1.02;90.23;96926.75;29371;202;64009;-57
2022/04/03 01:53:16;;;;;;;0.70;0.70;;;;;;;-1.01;90.32;96931.06;29373;382;63009;-56
2022/04/03 01:53:47;;;;;;;0.68;0.68;;;;;;;-1.02;90.23;96929.44;29373;259;63005;-57
2022/04/03 01:54:18;;;;;;;0.62;0.62;;;;;;;-1.05;90.39;96937.87;29373;211;63009;-56
2022/04/03 01:54:50;;;;;;;0.70;0.70;;;;;;;-1.05;90.55;96930.72;29371;218;64009;-58
2022/04/03 01:55:21;;;;;;;0.70;0.70;;;;;;;-0.98;90.71;96933.28;29373;213;63009;-57
2022/04/03 01:56:17;;;;;;;0.68;0.68;;;;;;;-0.99;89.96;96936.97;29373;242;63004;-56
2022/04/03 01:56:48;;;;;;;0.70;0.70;;;;;;;-0.96;90.31;96939.22;29371;319;64013;-56
2022/04/03 01:57:19;;;;;;;0.70;0.70;;;;;;;-0.99;90.23;96936.97;29373;199;63004;-56
2022/04/03 01:57:51;;;;;;;0.70;0.70;;;;;;;-1.03;90.17;96933.94;29373;209;63009;-56
2022/04/03 01:58:22;;;;;;;0.65;0.65;;;;;;;-0.99;90.34;96931.66;29373;368;63001;-57
2022/04/03 01:58:53;;;;;;;0.60;0.60;;;;;;;-0.99;90.50;96936.97;29373;281;63017;-56
2022/04/03 01:59:27;;;;;;;0.70;0.70;;;;;;;-0.92;90.23;96937.75;29373;243;63005;-56
2022/04/03 01:59:59;;;;;;;0.70;0.70;;;;;;;-0.93;90.03;96932.62;29373;361;63009;-57
2022/04/03 02:00:30;;;;;;;0.60;0.60;;;;;;;-0.97;90.20;96934.91;29373;205;63005;-55
2022/04/03 02:01:04;;;;;;;0.70;0.70;;;;;;;-1.01;90.27;96939.06;29373;267;63009;-57
2022/04/03 02:01:36;;;;;;;0.60;0.60;;;;;;;-0.98;90.40;96932.47;29373;229;63005;-64
2022/04/03 02:02:07;;;;;;;0.65;0.65;;;;;;;-1.03;90.34;96935.78;29371;361;64013;-56
2022/04/03 02:02:39;;;;;;;0.60;0.60;;;;;;;-1.05;90.66;96932.56;29373;238;63004;-62
2022/04/03 02:03:10;;;;;;;0.60;0.60;;;;;;;-1.00;90.76;96935.34;29371;215;64013;-57
2022/04/03 02:03:41;;;;;;;0.60;0.60;;;;;;;-0.95;90.64;96930.19;29373;197;63004;-58
2022/04/03 02:04:13;;;;;;;0.70;0.70;;;;;;;-0.89;90.15;96939.16;29373;220;63015;-56
2022/04/03 02:04:47;;;;;;;0.70;0.70;;;;;;;-0.86;90.19;96931.53;29373;208;63004;-56
2022/04/03 02:05:18;;;;;;;0.62;0.62;;;;;;;-0.87;89.60;96939.75;29371;284;64014;-56
2022/04/03 02:05:50;;;;;;;0.60;0.60;;;;;;;-0.93;89.88;96935.31;29371;245;64009;-57
2022/04/03 02:06:21;;;;;;;0.60;0.60;;;;;;;-0.98;89.65;96937.81;29373;257;63009;-55
2022/04/03 02:06:52;;;;;;;0.70;0.70;;;;;;;-1.05;89.87;96935.22;29373;304;63008;-56
2022/04/03 02:07:23;;;;;;;0.70;0.70;;;;;;;-1.09;89.84;96932.19;29373;329;63009;-57
2022/04/03 02:07:54;;;;;;;0.70;0.70;;;;;;;-1.14;90.13;96928.53;29371;220;64009;-58
2022/04/03 02:08:25;;;;;;;0.70;0.70;;;;;;;-1.17;90.60;96931.63;29373;383;63019;-62
2022/04/03 02:09:01;;;;;;;0.70;0.70;;;;;;;-1.19;90.69;96936.34;29373;239;63005;-63
2022/04/03 02:09:32;;;;;;;0.60;0.60;;;;;;;-1.19;91.08;96939.03;29373;232;63009;-57
2022/04/03 02:10:08;;;;;;;0.60;0.60;;;;;;;-1.20;91.29;96934.72;29373;341;63015;-57
2022/04/03 02:10:40;;;;;;;0.70;0.70;;;;;;;-1.20;91.54;96940.03;29373;200;63009;-57
2022/04/03 02:11:12;;;;;;;0.70;0.70;;;;;;;-1.19;91.47;96939.03;29373;294;63004;-57
2022/04/03 02:11:43;;;;;;;0.70;0.70;;;;;;;-1.15;91.63;96937.56;29373;323;63009;-57
2022/04/03 02:12:14;;;;;;;0.60;0.60;;;;;;;-1.14;91.81;96939.19;29373;353;63004;-56
2022/04/03 02:12:45;;;;;;;0.65;0.65;;;;;;;-1.16;91.37;96935.91;29371;202;64013;-56
2022/04/03 02:13:17;;;;;;;0.60;0.60;;;;;;;-1.19;91.44;96941.69;29373;211;63005;-57
2022/04/03 02:13:49;;;;;;;0.68;0.68;;;;;;;-1.21;91.59;96935.75;29371;354;64014;-56
2022/04/03 02:14:24;;;;;;;0.60;0.60;;;;;;;-1.22;91.65;96942.09;29373;248;63005;-56
2022/04/03 02:14:56;;;;;;;0.70;0.70;;;;;;;-1.23;91.83;96932.50;29373;206;63009;-57
2022/04/03 02:15:28;;;;;;;0.60;0.60;;;;;;;-1.24;92.06;96934.34;29371;210;64009;-57
2022/04/03 02:16:01;;;;;;;0.60;0.60;;;;;;;-1.23;91.95;96941.28;29373;233;63020;-56
2022/04/03 02:16:32;;;;;;;0.60;0.60;;;;;;;-1.23;92.18;96935.97;29373;220;63005;-57
2022/04/03 02:17:03;;;;;;;0.70;0.70;;;;;;;-1.23;92.05;96941.28;29373;218;63009;-56
2022/04/03 02:17:34;;;;;;;0.60;0.60;;;;;;;-1.23;92.12;96935.16;29371;244;64009;-57
2022/04/03 02:18:07;;;;;;;0.60;0.60;;;;;;;-1.23;92.40;96935.97;29373;214;63009;-57
2022/04/03 02:18:39;;;;;;;0.60;0.60;;;;;;;-1.16;92.20;96942.06;29371;205;64009;-56
2022/04/03 02:19:10;;;;;;;0.60;0.60;;;;;;;-1.12;91.88;96937.13;29373;240;63009;-57
2022/04/03 02:19:41;;;;;;;0.60;0.60;;;;;;;-1.11;91.75;96944.06;29373;292;63004;-57
2022/04/03 02:20:13;;;;;;;0.60;0.60;;;;;;;-1.11;91.69;96938.75;29373;278;63008;-57
2022/04/03 02:20:44;;;;;;;0.70;0.70;;;;;;;-1.10;91.47;96943.84;29373;197;63005;-57
2022/04/03 02:21:15;;;;;;;0.70;0.70;;;;;;;-1.11;91.75;96941.41;29373;210;63009;-58
2022/04/03 02:21:47;;;;;;;0.70;0.70;;;;;;;-1.12;91.62;96937.13;29373;198;63005;-57
2022/04/03 02:22:18;;;;;;;0.60;0.60;;;;;;;-1.11;91.51;96944.06;29373;202;63009;-57
2022/04/03 02:22:49;;;;;;;0.70;0.70;;;;;;;-1.11;91.54;96938.75;29373;212;63005;-56
2022/04/03 02:23:20;;;;;;;0.60;0.60;;;;;;;-1.13;91.72;96938.16;29371;210;64013;-57
2022/04/03 02:23:51;;;;;;;0.70;0.70;;;;;;;-1.16;91.66;96935.91;29373;299;63005;-57
2022/04/03 02:24:22;;;;;;;0.62;0.62;;;;;;;-1.21;91.49;96943.75;29371;203;64013;-58
2022/04/03 02:24:54;;;;;;;0.60;0.60;;;;;;;-1.23;91.79;96940.47;29373;225;63004;-57
2022/04/03 02:25:25;;;;;;;0.60;0.60;;;;;;;-1.26;91.90;96941.72;29373;208;63009;-56
2022/04/03 02:25:57;;;;;;;0.60;0.60;;;;;;;-1.27;91.70;96945.41;29373;285;63004;-57
2022/04/03 02:26:28;;;;;;;0.60;0.60;;;;;;;-1.27;92.17;96948.09;29373;216;63009;-58
2022/04/03 02:26:59;;;;;;;0.60;0.60;;;;;;;-1.28;92.27;96949.12;29371;215;64009;-57
2022/04/03 02:27:31;;;;;;;0.60;0.60;;;;;;;-1.27;92.40;96939.28;29373;283;63008;-57
2022/04/03 02:28:04;;;;;;;0.60;0.60;;;;;;;-1.27;92.26;96944.59;29373;202;63005;-56
2022/04/03 02:28:39;;;;;;;0.70;0.70;;;;;;;-1.29;92.57;96942.16;29373;247;63009;-57
2022/04/03 02:29:10;;;;;;;0.70;0.70;;;;;;;-1.31;92.50;96940.75;29373;209;63005;-57
2022/04/03 02:29:41;;;;;;;0.60;0.60;;;;;;;-1.33;92.38;96940.97;29371;225;64013;-57
2022/04/03 02:30:13;;;;;;;0.60;0.60;;;;;;;-1.35;92.49;96943.84;29371;202;64009;-57
2022/04/03 02:30:45;;;;;;;0.60;0.60;;;;;;;-1.35;92.66;96946.50;29373;242;63009;-57
2022/04/03 02:31:16;;;;;;;0.70;0.70;;;;;;;-1.36;92.74;96946.72;29373;197;63005;-57
2022/04/03 02:31:48;;;;;;;0.70;0.70;;;;;;;-1.36;92.84;96946.72;29371;241;64013;-57
2022/04/03 02:32:20;;;;;;;0.70;0.70;;;;;;;-1.35;92.96;96949.16;29373;218;63004;-56
2022/04/03 02:32:51;;;;;;;0.70;0.70;;;;;;;-1.37;93.12;96943.22;29373;215;63009;-56
2022/04/03 02:33:23;;;;;;;0.60;0.60;;;;;;;-1.39;93.05;96944.50;29373;202;63004;-56
2022/04/03 02:33:54;;;;;;;0.60;0.60;;;;;;;-1.42;93.32;96942.28;29373;214;63009;-56
2022/04/03 02:34:26;;;;;;;0.60;0.60;;;;;;;-1.41;93.29;96944.72;29373;282;63004;-57
2022/04/03 02:34:57;;;;;;;0.60;0.60;;;;;;;-1.41;93.42;96950.03;29373;210;63008;-57
2022/04/03 02:35:29;;;;;;;0.60;0.60;;;;;;;-1.41;93.47;96950.03;29373;371;63004;-56